Maimiti — PBIJ — position and weather

sailwx.info

Track history (hours):
 
Tides and Currents Weather Stations Pressure Air Temp Water Temp Dewpoint Dewpoint Depression Visibility Wind Speed Wind Dir Waves Ship Positions

Maimiti

Last reported at 2017-Jan-16 23:32 UTC. Time now 2017-Jan-17 07:02 UTC.
Position N 54°06' E 005°01'.

Length 35 m; draft 7 m.

Type: Tug. MMSI: 244850959.

Date/timePositionNaut miles runAvg speedWind from/ knotsBaromVisibWave heightAir tempDewpointWater temp
2017-Jan-16 23:32N 54°06' E 005°01'4 4.1
2017-Jan-16 22:33N 54°09' E 005°07'4 4.1
2017-Jan-16 21:33N 54°11' E 005°13'71 4.9
2017-Jan-16 07:11N 54°50' E 006°55'3 5.2
2017-Jan-16 06:33N 54°52' E 006°59'5 5.1
2017-Jan-16 05:33N 54°55' E 007°06'5 5.0
2017-Jan-16 04:33N 54°58' E 007°13'5 5.1
2017-Jan-16 03:33N 55°01' E 007°20'5 4.9
2017-Jan-16 02:33N 55°04' E 007°27'5 4.7
2017-Jan-16 01:33N 55°07' E 007°34'5 4.7
2017-Jan-16 00:33N 55°09' E 007°41'5 4.7
2017-Jan-15 23:33N 55°12' E 007°48'5 4.7
2017-Jan-15 22:31N 55°15' E 007°55'5 4.9
2017-Jan-15 21:33N 55°18' E 008°00'5 5.0
2017-Jan-15 20:33N 55°22' E 008°07'4 4.1
2017-Jan-15 19:33N 55°24' E 008°12'0 0.3
2017-Jan-15 18:33N 55°24' E 008°11'1 0.8
2017-Jan-15 17:33N 55°24' E 008°13'1 0.6
2017-Jan-15 16:33N 55°24' E 008°12'1 0.9
2017-Jan-15 15:33N 55°24' E 008°10'7 6.9
2017-Jan-15 14:33N 55°19' E 008°01'9 9.3
2017-Jan-15 13:33N 55°13' E 007°49'9 9.1
2017-Jan-15 12:33N 55°06' E 007°38'9 9.2
2017-Jan-15 11:33N 54°60' E 007°27'9 8.6
2017-Jan-15 10:33N 54°54' E 007°15'239 6.8
2017-Jan-13 23:06N 51°43' E 003°15'3 5.4
2017-Jan-13 22:31N 51°40' E 003°13'5 5.1
2017-Jan-13 21:33N 51°35' E 003°10'4 4.4
2017-Jan-13 20:33N 51°32' E 003°06'5 5.2
2017-Jan-13 19:33N 51°27' E 003°01'5 5.3
2017-Jan-13 18:33N 51°24' E 003°08'1110.1
2017-Jan-13 17:29N 51°25' E 003°25'1011.1
2017-Jan-13 16:33N 51°27' E 003°41'1 1.2
2017-Jan-13 15:33N 51°27' E 003°43'4 4.3
2017-Jan-13 14:31N 51°27' E 003°36'0 0.0
2017-Jan-13 13:32N 51°27' E 003°36'0 0.0
2017-Jan-13 12:33N 51°27' E 003°36'0 0.0
2017-Jan-13 11:31N 51°27' E 003°36'0 0.0
2017-Jan-13 10:33N 51°27' E 003°36'0 0.0
2017-Jan-13 09:33N 51°27' E 003°36'0 0.0
2017-Jan-13 08:33N 51°27' E 003°36'0 0.0
2017-Jan-13 07:32N 51°27' E 003°36'0 0.0
2017-Jan-13 06:33N 51°27' E 003°36'4 3.7
2017-Jan-13 05:32N 51°28' E 003°42'2 2.2
2017-Jan-13 04:33N 51°26' E 003°39'2 1.9
2017-Jan-13 03:32N 51°27' E 003°36'0 0.0
2017-Jan-13 02:29N 51°27' E 003°36'0 0.0
2017-Jan-13 01:31N 51°27' E 003°36'0 0.0
2017-Jan-13 00:33N 51°27' E 003°36'0 0.0
2017-Jan-12 23:33N 51°27' E 003°36'0 0.0
2017-Jan-12 22:33N 51°27' E 003°36'0 0.0
2017-Jan-12 21:33N 51°27' E 003°36'0 0.0
2017-Jan-12 20:32N 51°27' E 003°36'0 0.0
2017-Jan-12 19:33N 51°27' E 003°36'3 3.0
2017-Jan-12 18:33N 51°28' E 003°40'2 0.3
2017-Jan-12 12:24N 51°26' E 003°38'10 0.5
2017-Jan-11 17:30N 51°21' E 003°52'0 0.0
2017-Jan-11 16:28N 51°21' E 003°52'0 0.0
2017-Jan-11 05:29N 51°21' E 003°52'2 0.1
2017-Jan-10 16:16N 51°20' E 003°49'0 0.0
2017-Jan-10 15:33N 51°20' E 003°49'0 0.0
2017-Jan-10 14:33N 51°20' E 003°49'0 0.0
2017-Jan-10 13:33N 51°20' E 003°49'0 0.0
2017-Jan-10 12:33N 51°20' E 003°49'0 0.0
2017-Jan-10 11:33N 51°20' E 003°49'0 0.0
2017-Jan-10 10:33N 51°20' E 003°49'0 0.0
2017-Jan-10 09:33N 51°20' E 003°49'2 1.9
2017-Jan-10 08:34N 51°21' E 003°46'0 0.3
2017-Jan-10 07:33N 51°21' E 003°46'2 2.1
2017-Jan-10 06:33N 51°20' E 003°49'0 0.0
2017-Jan-10 05:33N 51°20' E 003°49'0 0.0
2017-Jan-10 04:33N 51°20' E 003°49'0 0.0
2017-Jan-10 03:33N 51°20' E 003°49'0 0.0
2017-Jan-10 02:33N 51°20' E 003°49'0 0.0
2017-Jan-10 01:33N 51°20' E 003°49'0 0.0
2017-Jan-10 00:33N 51°20' E 003°49'2 1.9
2017-Jan-09 23:33N 51°21' E 003°46'0 0.3
2017-Jan-09 22:33N 51°21' E 003°46'2 1.9
2017-Jan-09 21:33N 51°20' E 003°49'0 0.0
2017-Jan-09 20:32N 51°20' E 003°49'0 0.0
2017-Jan-09 19:33N 51°20' E 003°49'0 0.0
2017-Jan-09 18:33N 51°20' E 003°49'0 0.0
2017-Jan-09 17:33N 51°20' E 003°49'0 0.0
2017-Jan-09 16:33N 51°20' E 003°49'0 0.0
2017-Jan-09 15:33N 51°20' E 003°49'0 0.0
2017-Jan-09 14:33N 51°20' E 003°49'0 0.0
2017-Jan-09 13:33N 51°20' E 003°49'0 0.0
2017-Jan-09 12:33N 51°20' E 003°49'1 1.4
2017-Jan-09 11:33N 51°21' E 003°47'1 1.1
2017-Jan-09 10:34N 51°21' E 003°49'0 0.4
2017-Jan-09 09:33N 51°20' E 003°49'0 0.0
2017-Jan-09 08:33N 51°20' E 003°49'0 0.0
2017-Jan-09 07:33N 51°20' E 003°49'0 0.0
2017-Jan-09 06:33N 51°20' E 003°49'0 0.0
2017-Jan-09 05:33N 51°20' E 003°49'0 0.0
2017-Jan-09 04:33N 51°20' E 003°49'0 0.0
2017-Jan-09 03:33N 51°20' E 003°49'0 0.0
2017-Jan-09 02:33N 51°20' E 003°49'0 0.0
2017-Jan-09 01:33N 51°20' E 003°49'0 0.0
2017-Jan-09 00:33N 51°20' E 003°49'0 0.0
2017-Jan-08 23:33N 51°20' E 003°49'0 0.0
2017-Jan-08 22:33N 51°20' E 003°49'0 0.0
2017-Jan-08 21:33N 51°20' E 003°49'0 0.0
2017-Jan-08 20:33N 51°20' E 003°49'0 0.0
2017-Jan-08 19:33N 51°20' E 003°49'0 0.0
2017-Jan-08 18:33N 51°20' E 003°49'0 0.0
2017-Jan-08 17:33N 51°20' E 003°49'0 0.0
2017-Jan-08 16:33N 51°20' E 003°49'0 0.0
2017-Jan-08 15:33N 51°20' E 003°49'0 0.0
2017-Jan-08 14:33N 51°20' E 003°49'0 0.0
2017-Jan-08 13:33N 51°20' E 003°49'0 0.0
2017-Jan-08 12:33N 51°20' E 003°49'0 0.0
2017-Jan-08 11:33N 51°20' E 003°49'2 2.0
2017-Jan-08 10:33N 51°21' E 003°46'0 0.1
2017-Jan-08 09:34N 51°21' E 003°46'2 1.9
2017-Jan-08 08:34N 51°20' E 003°49'0 0.2
2017-Jan-08 07:33N 51°20' E 003°49'0 0.0
2017-Jan-08 06:33N 51°20' E 003°49'0 0.0
2017-Jan-08 05:33N 51°20' E 003°49'1 1.3
2017-Jan-08 04:33N 51°21' E 003°47'1 0.7
2017-Jan-08 03:34N 51°21' E 003°46'2 2.4
2017-Jan-08 02:33N 51°20' E 003°49'5 4.6
2017-Jan-08 01:33N 51°15' E 003°49'3 2.8
2017-Jan-08 00:33N 51°12' E 003°48'0 0.1
2017-Jan-07 23:33N 51°12' E 003°48'0 0.0
2017-Jan-07 22:17N 51°12' E 003°48'0 0.1
2017-Jan-07 21:32N 51°12' E 003°48'7 6.8
2017-Jan-07 20:33N 51°19' E 003°50'1 1.3
2017-Jan-07 19:33N 51°20' E 003°49'0 0.3
2017-Jan-07 18:33N 51°20' E 003°49'0 0.0
2017-Jan-07 17:33N 51°20' E 003°49'0 0.0
2017-Jan-07 16:33N 51°20' E 003°49'0 0.0
2017-Jan-07 15:33N 51°20' E 003°49'0 0.0
2017-Jan-07 14:33N 51°20' E 003°49'0 0.0
2017-Jan-07 13:33N 51°20' E 003°49'0 0.0
2017-Jan-07 12:33N 51°20' E 003°49'0 0.0
2017-Jan-07 11:33N 51°20' E 003°49'0 0.0
2017-Jan-07 10:33N 51°20' E 003°49'0 0.0
2017-Jan-07 09:33N 51°20' E 003°49'0 0.0
2017-Jan-07 08:33N 51°20' E 003°49'0 0.0
2017-Jan-07 07:33N 51°20' E 003°49'0 0.0
2017-Jan-07 06:32N 51°20' E 003°49'0 0.0
2017-Jan-07 05:33N 51°20' E 003°49'0 0.0
2017-Jan-07 04:33N 51°20' E 003°49'0 0.0
2017-Jan-07 03:33N 51°20' E 003°49'0 0.0
2017-Jan-07 02:33N 51°20' E 003°49'0 0.0
2017-Jan-07 01:33N 51°20' E 003°49'0 0.0
2017-Jan-07 00:33N 51°20' E 003°49'0 0.0
2017-Jan-06 23:33N 51°20' E 003°49'  
Track history (hours):
 
Tides and Currents Weather Stations Pressure Air Temp Water Temp Dewpoint Dewpoint Depression Visibility Wind Speed Wind Dir Waves Ship Positions

Maimiti

Last reported at 2017-Jan-16 23:32 UTC. Time now 2017-Jan-17 07:02 UTC.
Position N 54°06' E 005°01'.

Length 35 m; draft 7 m.

Type: Tug. MMSI: 244850959.

Date/timePositionNaut miles runAvg speedWind from/ knotsBaromVisibWave heightAir tempDewpointWater temp
2017-Jan-16 23:32N 54°06' E 005°01'4 4.1
2017-Jan-16 22:33N 54°09' E 005°07'4 4.1
2017-Jan-16 21:33N 54°11' E 005°13'71 4.9
2017-Jan-16 07:11N 54°50' E 006°55'3 5.2
2017-Jan-16 06:33N 54°52' E 006°59'5 5.1
2017-Jan-16 05:33N 54°55' E 007°06'5 5.0
2017-Jan-16 04:33N 54°58' E 007°13'5 5.1
2017-Jan-16 03:33N 55°01' E 007°20'5 4.9
2017-Jan-16 02:33N 55°04' E 007°27'5 4.7
2017-Jan-16 01:33N 55°07' E 007°34'5 4.7
2017-Jan-16 00:33N 55°09' E 007°41'5 4.7
2017-Jan-15 23:33N 55°12' E 007°48'5 4.7
2017-Jan-15 22:31N 55°15' E 007°55'5 4.9
2017-Jan-15 21:33N 55°18' E 008°00'5 5.0
2017-Jan-15 20:33N 55°22' E 008°07'4 4.1
2017-Jan-15 19:33N 55°24' E 008°12'0 0.3
2017-Jan-15 18:33N 55°24' E 008°11'1 0.8
2017-Jan-15 17:33N 55°24' E 008°13'1 0.6
2017-Jan-15 16:33N 55°24' E 008°12'1 0.9
2017-Jan-15 15:33N 55°24' E 008°10'7 6.9
2017-Jan-15 14:33N 55°19' E 008°01'9 9.3
2017-Jan-15 13:33N 55°13' E 007°49'9 9.1
2017-Jan-15 12:33N 55°06' E 007°38'9 9.2
2017-Jan-15 11:33N 54°60' E 007°27'9 8.6
2017-Jan-15 10:33N 54°54' E 007°15'239 6.8
2017-Jan-13 23:06N 51°43' E 003°15'3 5.4
2017-Jan-13 22:31N 51°40' E 003°13'5 5.1
2017-Jan-13 21:33N 51°35' E 003°10'4 4.4
2017-Jan-13 20:33N 51°32' E 003°06'5 5.2
2017-Jan-13 19:33N 51°27' E 003°01'5 5.3
2017-Jan-13 18:33N 51°24' E 003°08'1110.1
2017-Jan-13 17:29N 51°25' E 003°25'1011.1
2017-Jan-13 16:33N 51°27' E 003°41'1 1.2
2017-Jan-13 15:33N 51°27' E 003°43'4 4.3
2017-Jan-13 14:31N 51°27' E 003°36'0 0.0
2017-Jan-13 13:32N 51°27' E 003°36'0 0.0
2017-Jan-13 12:33N 51°27' E 003°36'0 0.0
2017-Jan-13 11:31N 51°27' E 003°36'0 0.0
2017-Jan-13 10:33N 51°27' E 003°36'0 0.0
2017-Jan-13 09:33N 51°27' E 003°36'0 0.0
2017-Jan-13 08:33N 51°27' E 003°36'0 0.0
2017-Jan-13 07:32N 51°27' E 003°36'0 0.0
2017-Jan-13 06:33N 51°27' E 003°36'4 3.7
2017-Jan-13 05:32N 51°28' E 003°42'2 2.2
2017-Jan-13 04:33N 51°26' E 003°39'2 1.9
2017-Jan-13 03:32N 51°27' E 003°36'0 0.0
2017-Jan-13 02:29N 51°27' E 003°36'0 0.0
2017-Jan-13 01:31N 51°27' E 003°36'0 0.0
2017-Jan-13 00:33N 51°27' E 003°36'0 0.0
2017-Jan-12 23:33N 51°27' E 003°36'0 0.0
2017-Jan-12 22:33N 51°27' E 003°36'0 0.0
2017-Jan-12 21:33N 51°27' E 003°36'0 0.0
2017-Jan-12 20:32N 51°27' E 003°36'0 0.0
2017-Jan-12 19:33N 51°27' E 003°36'3 3.0
2017-Jan-12 18:33N 51°28' E 003°40'2 0.3
2017-Jan-12 12:24N 51°26' E 003°38'10 0.5
2017-Jan-11 17:30N 51°21' E 003°52'0 0.0
2017-Jan-11 16:28N 51°21' E 003°52'0 0.0
2017-Jan-11 05:29N 51°21' E 003°52'2 0.1
2017-Jan-10 16:16N 51°20' E 003°49'0 0.0
2017-Jan-10 15:33N 51°20' E 003°49'0 0.0
2017-Jan-10 14:33N 51°20' E 003°49'0 0.0
2017-Jan-10 13:33N 51°20' E 003°49'0 0.0
2017-Jan-10 12:33N 51°20' E 003°49'0 0.0
2017-Jan-10 11:33N 51°20' E 003°49'0 0.0
2017-Jan-10 10:33N 51°20' E 003°49'0 0.0
2017-Jan-10 09:33N 51°20' E 003°49'2 1.9
2017-Jan-10 08:34N 51°21' E 003°46'0 0.3
2017-Jan-10 07:33N 51°21' E 003°46'2 2.1
2017-Jan-10 06:33N 51°20' E 003°49'0 0.0
2017-Jan-10 05:33N 51°20' E 003°49'0 0.0
2017-Jan-10 04:33N 51°20' E 003°49'0 0.0
2017-Jan-10 03:33N 51°20' E 003°49'0 0.0
2017-Jan-10 02:33N 51°20' E 003°49'0 0.0
2017-Jan-10 01:33N 51°20' E 003°49'0 0.0
2017-Jan-10 00:33N 51°20' E 003°49'2 1.9
2017-Jan-09 23:33N 51°21' E 003°46'0 0.3
2017-Jan-09 22:33N 51°21' E 003°46'2 1.9
2017-Jan-09 21:33N 51°20' E 003°49'0 0.0
2017-Jan-09 20:32N 51°20' E 003°49'0 0.0
2017-Jan-09 19:33N 51°20' E 003°49'0 0.0
2017-Jan-09 18:33N 51°20' E 003°49'0 0.0
2017-Jan-09 17:33N 51°20' E 003°49'0 0.0
2017-Jan-09 16:33N 51°20' E 003°49'0 0.0
2017-Jan-09 15:33N 51°20' E 003°49'0 0.0
2017-Jan-09 14:33N 51°20' E 003°49'0 0.0
2017-Jan-09 13:33N 51°20' E 003°49'0 0.0
2017-Jan-09 12:33N 51°20' E 003°49'1 1.4
2017-Jan-09 11:33N 51°21' E 003°47'1 1.1
2017-Jan-09 10:34N 51°21' E 003°49'0 0.4
2017-Jan-09 09:33N 51°20' E 003°49'0 0.0
2017-Jan-09 08:33N 51°20' E 003°49'0 0.0
2017-Jan-09 07:33N 51°20' E 003°49'0 0.0
2017-Jan-09 06:33N 51°20' E 003°49'0 0.0
2017-Jan-09 05:33N 51°20' E 003°49'0 0.0
2017-Jan-09 04:33N 51°20' E 003°49'0 0.0
2017-Jan-09 03:33N 51°20' E 003°49'0 0.0
2017-Jan-09 02:33N 51°20' E 003°49'0 0.0
2017-Jan-09 01:33N 51°20' E 003°49'0 0.0
2017-Jan-09 00:33N 51°20' E 003°49'0 0.0
2017-Jan-08 23:33N 51°20' E 003°49'0 0.0
2017-Jan-08 22:33N 51°20' E 003°49'0 0.0
2017-Jan-08 21:33N 51°20' E 003°49'0 0.0
2017-Jan-08 20:33N 51°20' E 003°49'0 0.0
2017-Jan-08 19:33N 51°20' E 003°49'0 0.0
2017-Jan-08 18:33N 51°20' E 003°49'0 0.0
2017-Jan-08 17:33N 51°20' E 003°49'0 0.0
2017-Jan-08 16:33N 51°20' E 003°49'0 0.0
2017-Jan-08 15:33N 51°20' E 003°49'0 0.0
2017-Jan-08 14:33N 51°20' E 003°49'0 0.0
2017-Jan-08 13:33N 51°20' E 003°49'0 0.0
2017-Jan-08 12:33N 51°20' E 003°49'0 0.0
2017-Jan-08 11:33N 51°20' E 003°49'2 2.0
2017-Jan-08 10:33N 51°21' E 003°46'0 0.1
2017-Jan-08 09:34N 51°21' E 003°46'2 1.9
2017-Jan-08 08:34N 51°20' E 003°49'0 0.2
2017-Jan-08 07:33N 51°20' E 003°49'0 0.0
2017-Jan-08 06:33N 51°20' E 003°49'0 0.0
2017-Jan-08 05:33N 51°20' E 003°49'1 1.3
2017-Jan-08 04:33N 51°21' E 003°47'1 0.7
2017-Jan-08 03:34N 51°21' E 003°46'2 2.4
2017-Jan-08 02:33N 51°20' E 003°49'5 4.6
2017-Jan-08 01:33N 51°15' E 003°49'3 2.8
2017-Jan-08 00:33N 51°12' E 003°48'0 0.1
2017-Jan-07 23:33N 51°12' E 003°48'0 0.0
2017-Jan-07 22:17N 51°12' E 003°48'0 0.1
2017-Jan-07 21:32N 51°12' E 003°48'7 6.8
2017-Jan-07 20:33N 51°19' E 003°50'1 1.3
2017-Jan-07 19:33N 51°20' E 003°49'0 0.3
2017-Jan-07 18:33N 51°20' E 003°49'0 0.0
2017-Jan-07 17:33N 51°20' E 003°49'0 0.0
2017-Jan-07 16:33N 51°20' E 003°49'0 0.0
2017-Jan-07 15:33N 51°20' E 003°49'0 0.0
2017-Jan-07 14:33N 51°20' E 003°49'0 0.0
2017-Jan-07 13:33N 51°20' E 003°49'0 0.0
2017-Jan-07 12:33N 51°20' E 003°49'0 0.0
2017-Jan-07 11:33N 51°20' E 003°49'0 0.0
2017-Jan-07 10:33N 51°20' E 003°49'0 0.0
2017-Jan-07 09:33N 51°20' E 003°49'0 0.0
2017-Jan-07 08:33N 51°20' E 003°49'0 0.0
2017-Jan-07 07:33N 51°20' E 003°49'0 0.0
2017-Jan-07 06:32N 51°20' E 003°49'0 0.0
2017-Jan-07 05:33N 51°20' E 003°49'0 0.0
2017-Jan-07 04:33N 51°20' E 003°49'0 0.0
2017-Jan-07 03:33N 51°20' E 003°49'0 0.0
2017-Jan-07 02:33N 51°20' E 003°49'0 0.0
2017-Jan-07 01:33N 51°20' E 003°49'0 0.0
2017-Jan-07 00:33N 51°20' E 003°49'0 0.0
2017-Jan-06 23:33N 51°20' E 003°49'  

Dump ship's entire track history